Island Venture — WDG3765 — position and weather

sailwx.info

Track history (hours):
 
Tides and Currents Weather Stations Pressure Air Temp Water Temp Dewpoint Dewpoint Depression Visibility Wind Speed Wind Dir Waves Ship Positions

Island Venture

Owner: Island Tug & Barge Co, Seattle, WA. More information available from US FCC via Universal Licensing System and Coast Guard Vessel Documentation Center.

Last reported at 2014-Oct-31 23:33 UTC. Time now 2014-Nov-01 00:34 UTC.
Position N 47°54' W 122°30'.

Type: Tug. MMSI: 367529420.

Date/timePositionNaut miles runAvg speedWind from/ knotsBaromVisibWave heightAir tempDewpointWater temp
2014-Oct-31 23:33N 47°54' W 122°30'1 8.8
2014-Oct-31 23:30N 47°55' W 122°31'4 4.0
2014-Oct-31 22:32N 47°53' W 122°36'111.0
2014-Oct-31 22:24N 47°52' W 122°37'6 7.6
2014-Oct-31 21:33N 47°47' W 122°43'1 9.1
2014-Oct-31 21:30N 47°46' W 122°43'4 4.7
2014-Oct-31 20:33N 47°50' W 122°40'0 5.9
2014-Oct-31 20:29N 47°50' W 122°39'5 5.8
2014-Oct-31 19:33N 47°55' W 122°37'4 4.3
2014-Oct-31 18:34N 47°55' W 122°31'0 9.4
2014-Oct-31 18:33N 47°55' W 122°31'2 6.8
2014-Oct-31 18:19N 47°54' W 122°30'5 6.6
2014-Oct-31 17:33N 47°49' W 122°27'4 6.7
2014-Oct-31 17:01N 47°46' W 122°25'3 7.1
2014-Oct-31 16:33N 47°42' W 122°26'0 6.7
2014-Oct-31 16:31N 47°42' W 122°26'6 6.7
2014-Oct-31 15:33N 47°36' W 122°26'0 6.8
2014-Oct-31 15:31N 47°36' W 122°26'7 7.1
2014-Oct-31 14:33N 47°29' W 122°30'1 7.8
2014-Oct-31 14:25N 47°28' W 122°31'7 7.8
2014-Oct-31 13:33N 47°22' W 122°32'5 6.7
2014-Oct-31 12:51N 47°18' W 122°27'1 4.1
2014-Oct-31 12:33N 47°17' W 122°26'2 1.6
2014-Oct-31 11:33N 47°17' W 122°24'3 3.3
2014-Oct-31 10:33N 47°20' W 122°25'9 8.7
2014-Oct-31 09:33N 47°28' W 122°25'5 9.5
2014-Oct-31 09:01N 47°34' W 122°25'3 6.3
2014-Oct-31 08:33N 47°35' W 122°22'1 8.0
2014-Oct-31 08:26N 47°34' W 122°21'2 1.9
2014-Oct-31 07:33N 47°36' W 122°22'0 1.4
2014-Oct-31 07:30N 47°36' W 122°22'2 2.5
2014-Oct-31 06:33N 47°37' W 122°24'0 5.3
2014-Oct-31 06:30N 47°37' W 122°25'1 5.5
2014-Oct-31 06:20N 47°38' W 122°26'4 5.0
2014-Oct-31 05:33N 47°42' W 122°28'6 5.5
2014-Oct-31 04:33N 47°47' W 122°27'0 5.6
2014-Oct-31 04:30N 47°47' W 122°27'6 6.1
2014-Oct-31 03:33N 47°53' W 122°29'0 5.1
2014-Oct-31 03:29N 47°53' W 122°29'5 5.5
2014-Oct-31 02:33N 47°57' W 122°35'5 5.5
2014-Oct-31 01:33N 48°02' W 122°39'6 5.2
2014-Oct-31 00:27N 48°07' W 122°41'5 4.5
2014-Oct-30 23:17N 48°11' W 122°47'15 5.1
2014-Oct-30 20:27N 48°25' W 122°44'5 5.6
2014-Oct-30 19:33N 48°30' W 122°44'5 4.8
2014-Oct-30 18:33N 48°35' W 122°45'4 3.7
2014-Oct-30 17:33N 48°39' W 122°44'4 3.5
2014-Oct-30 16:33N 48°42' W 122°45'4 3.9
2014-Oct-30 15:32N 48°45' W 122°48'5 4.9
2014-Oct-30 14:31N 48°48' W 122°54'5 5.3
2014-Oct-30 13:33N 48°51' W 123°01'5 5.0
2014-Oct-30 12:33N 48°53' W 123°07'6 5.7
2014-Oct-30 11:33N 48°57' W 123°14'6 6.1
2014-Oct-30 10:33N 49°01' W 123°21'5 5.4
2014-Oct-30 09:33N 49°05' W 123°26'5 5.4
2014-Oct-30 08:33N 49°09' W 123°32'6 6.0
2014-Oct-30 07:33N 49°13' W 123°39'7 6.6
2014-Oct-30 06:32N 49°17' W 123°47'7 5.9
2014-Oct-30 05:18N 49°22' W 123°56'6 5.3
2014-Oct-30 04:06N 49°26' W 124°03'5 5.5
2014-Oct-30 03:13N 49°29' W 124°09'4 4.9
2014-Oct-30 02:21N 49°31' W 124°14'4 5.1
2014-Oct-30 01:32N 49°33' W 124°20'5 5.2
2014-Oct-30 00:30N 49°36' W 124°27'5 0.5
2014-Oct-29 14:30N 49°40' W 124°32'5 4.9
2014-Oct-29 13:32N 49°36' W 124°27'5 4.8
2014-Oct-29 12:33N 49°34' W 124°21'6 5.9
2014-Oct-29 11:29N 49°31' W 124°13'8 8.3
2014-Oct-29 10:32N 49°26' W 124°03'8 7.8
2014-Oct-29 09:29N 49°21' W 123°53'7 8.0
2014-Oct-29 08:33N 49°17' W 123°44'8 7.7
2014-Oct-29 07:33N 49°12' W 123°35'8 7.5
2014-Oct-29 06:33N 49°07' W 123°26'8 7.6
2014-Oct-29 05:33N 49°02' W 123°17'7 7.1
2014-Oct-29 04:33N 48°57' W 123°09'7 6.7
2014-Oct-29 03:33N 48°53' W 123°02'15 7.2
2014-Oct-29 01:29N 48°44' W 122°44'6 6.4
2014-Oct-29 00:33N 48°38' W 122°45'7 7.2
2014-Oct-28 23:33N 48°30' W 122°44'9 7.5
2014-Oct-28 22:22N 48°22' W 122°45'9 7.6
2014-Oct-28 21:08N 48°12' W 122°47'5 9.4
2014-Oct-28 20:33N 48°09' W 122°41'10 9.7
2014-Oct-28 19:33N 47°60' W 122°36'8 8.5
2014-Oct-28 18:33N 47°53' W 122°28'8 7.7
2014-Oct-28 17:33N 47°45' W 122°26'5 7.7
2014-Oct-28 16:54N 47°41' W 122°27'3 7.3
2014-Oct-28 16:33N 47°38' W 122°26'0 6.6
2014-Oct-28 16:30N 47°38' W 122°26'4 3.8
2014-Oct-28 15:33N 47°35' W 122°22'0 3.8
2014-Oct-28 15:30N 47°35' W 122°22'1 1.0
2014-Oct-28 14:33N 47°34' W 122°21'0 0.1
2014-Oct-28 14:29N 47°34' W 122°21'0 0.0
2014-Oct-28 13:33N 47°34' W 122°21'0 0.0
2014-Oct-28 13:29N 47°34' W 122°21'0 0.0
2014-Oct-28 12:33N 47°34' W 122°21'0 0.0
2014-Oct-28 12:29N 47°34' W 122°21'0 0.0
2014-Oct-28 11:33N 47°34' W 122°21'0 0.0
2014-Oct-28 11:29N 47°34' W 122°21'0 0.0
2014-Oct-28 10:33N 47°34' W 122°21'0 0.0
2014-Oct-28 10:29N 47°34' W 122°21'0 0.0
2014-Oct-28 09:33N 47°34' W 122°21'0 0.0
2014-Oct-28 09:29N 47°34' W 122°21'0 0.0
2014-Oct-28 08:33N 47°34' W 122°21'0 0.1
2014-Oct-28 08:29N 47°34' W 122°21'0 0.0
2014-Oct-28 07:33N 47°34' W 122°21'0 0.5
2014-Oct-28 07:29N 47°34' W 122°21'0 0.0
2014-Oct-28 06:33N 47°34' W 122°21'0 0.1
2014-Oct-28 06:28N 47°34' W 122°21'0 0.5
2014-Oct-28 06:23N 47°34' W 122°21'0 0.0
2014-Oct-28 05:33N 47°34' W 122°21'0 0.0
2014-Oct-28 04:33N 47°34' W 122°21'0 0.0
2014-Oct-28 04:28N 47°34' W 122°21'0 0.0
2014-Oct-28 03:33N 47°34' W 122°21'0 0.0
2014-Oct-28 03:33N 47°34' W 122°21'0 0.0
2014-Oct-28 02:33N 47°34' W 122°21'0 0.0
2014-Oct-28 02:33N 47°34' W 122°21'0 0.0
2014-Oct-28 01:33N 47°34' W 122°21'0 0.0
2014-Oct-28 01:33N 47°34' W 122°21'0 0.0
2014-Oct-28 00:33N 47°34' W 122°21'0 0.0
2014-Oct-28 00:33N 47°34' W 122°21'0 0.5
2014-Oct-27 23:33N 47°34' W 122°21'0 0.0
2014-Oct-27 23:33N 47°34' W 122°21'1 0.8
2014-Oct-27 22:36N 47°33' W 122°21'0 5.3
2014-Oct-27 22:33N 47°34' W 122°21'1 0.8
2014-Oct-27 21:33N 47°34' W 122°21'0 4.9
2014-Oct-27 21:31N 47°34' W 122°21'0 0.1
2014-Oct-27 20:33N 47°34' W 122°21'0 0.0
2014-Oct-27 20:31N 47°34' W 122°21'0 0.4
2014-Oct-27 19:33N 47°34' W 122°21'0 2.4
2014-Oct-27 19:31N 47°34' W 122°21'0 0.5
2014-Oct-27 18:33N 47°34' W 122°21'0 0.1
2014-Oct-27 18:30N 47°34' W 122°21'1 0.6
2014-Oct-27 17:33N 47°34' W 122°21'0 4.3
2014-Oct-27 17:30N 47°34' W 122°21'3 3.1
2014-Oct-27 16:33N 47°36' W 122°24'0 3.8
2014-Oct-27 16:31N 47°37' W 122°24'5 5.3
2014-Oct-27 15:33N 47°41' W 122°28'0 5.1
2014-Oct-27 15:30N 47°41' W 122°28'5 5.8
2014-Oct-27 14:33N 47°46' W 122°27'0 5.9
2014-Oct-27 14:30N 47°47' W 122°27'6 6.4
2014-Oct-27 13:33N 47°52' W 122°29'1 6.4
2014-Oct-27 13:25N 47°53' W 122°30'7 7.9
2014-Oct-27 12:32N 47°59' W 122°37'1 8.0
2014-Oct-27 12:25N 47°59' W 122°37'9 7.5
2014-Oct-27 11:17N 48°07' W 122°42'7 9.0
2014-Oct-27 10:33N 48°11' W 122°50'6 5.7
2014-Oct-27 09:32N 48°16' W 122°55'6 5.5
2014-Oct-27 08:32N 48°20' W 122°60'6 6.0
2014-Oct-27 07:33N 48°25' W 123°05'8 7.8
2014-Oct-27 06:33N 48°31' W 123°11'9 8.6
2014-Oct-27 05:33N 48°40' W 123°15'7 6.5
2014-Oct-27 04:33N 48°45' W 123°09'3 3.3
2014-Oct-27 03:33N 48°46' W 123°13'0 0.1
2014-Oct-27 02:33N 48°46' W 123°13'0 0.1
2014-Oct-27 01:33N 48°46' W 123°13'0 0.1
2014-Oct-27 00:33N 48°46' W 123°13'0 0.2
2014-Oct-26 23:33N 48°46' W 123°13'0 0.2
2014-Oct-26 22:33N 48°46' W 123°13'0 0.1
2014-Oct-26 21:33N 48°46' W 123°13'0 0.0
2014-Oct-26 20:29N 48°46' W 123°13'0 0.0
2014-Oct-26 19:29N 48°46' W 123°13'0 0.0
2014-Oct-26 18:33N 48°46' W 123°13'0 0.1
2014-Oct-26 17:29N 48°46' W 123°13'0 0.0
2014-Oct-26 16:33N 48°46' W 123°13'0 0.0
2014-Oct-26 15:33N 48°46' W 123°13'0 0.0
2014-Oct-26 14:33N 48°46' W 123°13'0 0.0
2014-Oct-26 13:31N 48°46' W 123°13'0 0.0
2014-Oct-26 12:33N 48°46' W 123°13'0 0.0
2014-Oct-26 11:33N 48°46' W 123°13'0 0.0
2014-Oct-26 10:33N 48°46' W 123°13'0 0.0
2014-Oct-26 09:32N 48°46' W 123°13'0 0.0
2014-Oct-26 08:32N 48°46' W 123°13'0 0.0
2014-Oct-26 07:33N 48°46' W 123°13'0 0.0
2014-Oct-26 06:33N 48°46' W 123°13'0 0.1
2014-Oct-26 05:33N 48°46' W 123°13'0 0.1
2014-Oct-26 04:33N 48°46' W 123°13'0 0.0
2014-Oct-26 03:32N 48°46' W 123°13'0 0.0
2014-Oct-26 02:33N 48°46' W 123°13'0 0.0
2014-Oct-26 01:33N 48°46' W 123°13'0 0.0
2014-Oct-26 00:33N 48°46' W 123°13'0 0.0
2014-Oct-25 23:33N 48°46' W 123°13'0 0.1
2014-Oct-25 22:33N 48°46' W 123°13'0 0.3
2014-Oct-25 21:33N 48°46' W 123°13'0 0.2
2014-Oct-25 20:32N 48°46' W 123°13'0 0.0
2014-Oct-25 19:33N 48°46' W 123°13'0 0.0
2014-Oct-25 18:33N 48°46' W 123°13'0 0.0
2014-Oct-25 17:33N 48°46' W 123°13'0 0.0
2014-Oct-25 16:33N 48°46' W 123°13'0 0.4
2014-Oct-25 15:33N 48°46' W 123°13'0 0.2
2014-Oct-25 14:33N 48°47' W 123°13'0 0.2
2014-Oct-25 13:33N 48°46' W 123°13'0 0.3
2014-Oct-25 12:33N 48°46' W 123°13'4 3.7
2014-Oct-25 11:33N 48°44' W 123°08'2 1.7
2014-Oct-25 10:33N 48°44' W 123°06'3 3.0
2014-Oct-25 09:33N 48°42' W 123°10'4 4.0
2014-Oct-25 08:33N 48°41' W 123°15'5 4.8
2014-Oct-25 07:33N 48°36' W 123°14'4 3.9
2014-Oct-25 06:33N 48°32' W 123°12'3 3.1
2014-Oct-25 05:33N 48°30' W 123°09'4 4.3
2014-Oct-25 04:33N 48°26' W 123°05'6 5.9
2014-Oct-25 03:33N 48°22' W 122°59'6 5.8
2014-Oct-25 02:32N 48°17' W 122°55'7 6.1
2014-Oct-25 01:26N 48°12' W 122°48'5 5.8
2014-Oct-25 00:36N 48°09' W 122°42'1 5.4
2014-Oct-25 00:30N 48°09' W 122°42'6 5.4
2014-Oct-24 23:29N 48°04' W 122°38'5 5.2
2014-Oct-24 22:33N 47°59' W 122°35'2 5.3
2014-Oct-24 22:11N 47°58' W 122°33'4 5.8
2014-Oct-24 21:33N 47°55' W 122°29'7 6.6
2014-Oct-24 20:33N 47°49' W 122°26'4 6.8
2014-Oct-24 20:01N 47°45' W 122°25'3 7.1
2014-Oct-24 19:33N 47°42' W 122°26'0 6.8
2014-Oct-24 19:31N 47°42' W 122°26'6 6.4
2014-Oct-24 18:33N 47°36' W 122°23'1 3.5
2014-Oct-24 18:14N 47°35' W 122°22'1 1.5
2014-Oct-24 17:33N 47°34' W 122°21'0 0.6
2014-Oct-24 17:29N 47°34' W 122°21'0 0.0
2014-Oct-24 16:33N 47°34' W 122°21'0 0.1
2014-Oct-24 16:28N 47°34' W 122°21'0 0.0
2014-Oct-24 15:33N 47°34' W 122°21'0 0.1
2014-Oct-24 15:29N 47°34' W 122°21'1 0.6
2014-Oct-24 14:33N 47°34' W 122°21'0 0.1
2014-Oct-24 14:28N 47°34' W 122°21'0 0.5
2014-Oct-24 13:33N 47°34' W 122°21'0 0.0
2014-Oct-24 13:33N 47°34' W 122°21'0 0.0
2014-Oct-24 12:33N 47°34' W 122°21'0 0.0
2014-Oct-24 12:33N 47°34' W 122°21'0 0.0
2014-Oct-24 11:33N 47°34' W 122°21'0 0.0
2014-Oct-24 11:33N 47°34' W 122°21'0 0.0
2014-Oct-24 10:33N 47°34' W 122°21'0 0.0
2014-Oct-24 10:33N 47°34' W 122°21'1 0.7
2014-Oct-24 09:33N 47°34' W 122°21'0 0.0
2014-Oct-24 09:33N 47°34' W 122°21'1 1.4
2014-Oct-24 08:33N 47°32' W 122°20'3 2.8
2014-Oct-24 07:33N 47°35' W 122°22'2 2.2
2014-Oct-24 06:27N 47°35' W 122°25'1 7.6
2014-Oct-24 06:22N 47°35' W 122°26'3 8.1
2014-Oct-24 06:02N 47°32' W 122°27'5 9.4
2014-Oct-24 05:33N 47°28' W 122°31'9 8.5
2014-Oct-24 04:33N 47°20' W 122°32'5 4.6
2014-Oct-24 03:33N 47°18' W 122°26'0 0.0
2014-Oct-24 02:33N 47°18' W 122°26'0 0.0
2014-Oct-24 01:33N 47°18' W 122°26'2 1.7
2014-Oct-24 00:30N 47°16' W 122°24'4 4.0
2014-Oct-23 23:36N 47°18' W 122°28'0 8.5
2014-Oct-23 23:33N 47°18' W 122°29'3 3.3
2014-Oct-23 22:33N 47°16' W 122°33'7 6.1
2014-Oct-23 21:21N 47°10' W 122°38'1 1.3
2014-Oct-23 20:23N 47°09' W 122°38'0 0.0
2014-Oct-23 19:33N 47°09' W 122°38'1 1.0
2014-Oct-23 18:33N 47°10' W 122°39'8 7.8
2014-Oct-23 17:33N 47°16' W 122°33'3 4.4
2014-Oct-23 16:50N 47°19' W 122°30'310.0
2014-Oct-23 16:33N 47°17' W 122°26'2 1.7
2014-Oct-23 15:28N 47°17' W 122°24'0 0.0
2014-Oct-23 14:31N 47°17' W 122°24'1 0.7
2014-Oct-23 13:20N 47°16' W 122°23'1 1.0
2014-Oct-23 12:33N 47°17' W 122°24'1 0.6
2014-Oct-23 11:32N 47°16' W 122°23'2 2.2
2014-Oct-23 10:33N 47°17' W 122°26'3 3.3
2014-Oct-23 09:33N 47°20' W 122°24'2 5.2
2014-Oct-23 09:14N 47°21' W 122°22'3 4.9
2014-Oct-23 08:33N 47°25' W 122°23'3 4.7
2014-Oct-23 07:49N 47°28' W 122°25'1 4.8
2014-Oct-23 07:33N 47°29' W 122°26'2 4.7
2014-Oct-23 07:05N 47°31' W 122°26'3 4.9
2014-Oct-23 06:33N 47°34' W 122°27'0 4.7
2014-Oct-23 06:29N 47°34' W 122°27'2 4.2
2014-Oct-23 05:55N 47°37' W 122°28'1 4.0
2014-Oct-23 05:33N 47°38' W 122°28'3 3.5
2014-Oct-23 04:33N 47°41' W 122°28'0 3.5
2014-Oct-23 04:29N 47°42' W 122°28'3 3.4
2014-Oct-23 03:33N 47°45' W 122°27'0 3.1
2014-Oct-23 03:29N 47°45' W 122°27'3 3.6
2014-Oct-23 02:33N 47°48' W 122°28'0 3.9
2014-Oct-23 02:29N 47°49' W 122°28'4 3.9
2014-Oct-23 01:33N 47°52' W 122°29'0 3.8
2014-Oct-23 01:29N 47°52' W 122°30'4 3.8
2014-Oct-23 00:33N 47°55' W 122°32'4 4.1
2014-Oct-22 23:33N 47°56' W 122°38'5 4.7
2014-Oct-22 22:33N 47°52' W 122°37'4 4.1
2014-Oct-22 21:33N 47°48' W 122°41'3 2.8
2014-Oct-22 20:33N 47°46' W 122°43'0 0.2
2014-Oct-22 19:33N 47°46' W 122°43'0 0.0
2014-Oct-22 18:33N 47°46' W 122°43'0 4.9
2014-Oct-22 18:33N 47°46' W 122°43'7 7.4
2014-Oct-22 17:33N 47°52' W 122°37'5 4.7
2014-Oct-22 16:31N 47°57' W 122°37'3 8.0
2014-Oct-22 16:12N 47°57' W 122°33'5 8.0
2014-Oct-22 15:33N 47°53' W 122°28'7 8.6
2014-Oct-22 14:48N 47°47' W 122°26'2 8.7
2014-Oct-22 14:33N 47°45' W 122°26'0 8.6
2014-Oct-22 14:33N 47°45' W 122°26'8 7.9
2014-Oct-22 13:33N 47°37' W 122°24'0 6.9
2014-Oct-22 13:32N 47°37' W 122°23'3 3.0
2014-Oct-22 12:33N 47°34' W 122°21'0 0.0
2014-Oct-22 12:32N 47°34' W 122°21'0 0.0
2014-Oct-22 11:33N 47°34' W 122°21'0 0.0
2014-Oct-22 11:32N 47°34' W 122°21'0 0.0
2014-Oct-22 10:33N 47°34' W 122°21'0 0.0
2014-Oct-22 10:32N 47°34' W 122°21'0 0.0
2014-Oct-22 09:33N 47°34' W 122°21'0 0.0
2014-Oct-22 09:32N 47°34' W 122°21'0 0.0
2014-Oct-22 08:33N 47°34' W 122°21'0 0.0
2014-Oct-22 08:32N 47°34' W 122°21'0 0.0
2014-Oct-22 07:33N 47°34' W 122°21'0 0.3
2014-Oct-22 07:32N 47°34' W 122°21'0 0.0
2014-Oct-22 06:33N 47°34' W 122°21'0 0.0
2014-Oct-22 06:31N 47°34' W 122°21'0 0.0
2014-Oct-22 05:57N 47°34' W 122°21'0 0.0
2014-Oct-22 05:33N 47°34' W 122°21'0 0.0
2014-Oct-22 04:32N 47°34' W 122°21'0 0.0
2014-Oct-22 04:31N 47°34' W 122°21'0 0.0
2014-Oct-22 03:33N 47°34' W 122°21'0 0.0
2014-Oct-22 03:31N 47°34' W 122°21'0 0.0
2014-Oct-22 02:26N 47°34' W 122°21'0 0.0
2014-Oct-22 01:29N 47°34' W 122°21'0 0.0
2014-Oct-22 01:29N 47°34' W 122°21'0 0.0
2014-Oct-22 00:19N 47°34' W 122°21'1 2.3
2014-Oct-21 23:52N 47°35' W 122°22'1 4.5
2014-Oct-21 23:33N 47°34' W 122°21'  
Track history (hours):
 
Tides and Currents Weather Stations Pressure Air Temp Water Temp Dewpoint Dewpoint Depression Visibility Wind Speed Wind Dir Waves Ship Positions

Island Venture

Owner: Island Tug & Barge Co, Seattle, WA. More information available from US FCC via Universal Licensing System and Coast Guard Vessel Documentation Center.

Last reported at 2014-Oct-31 23:33 UTC. Time now 2014-Nov-01 00:34 UTC.
Position N 47°54' W 122°30'.

Type: Tug. MMSI: 367529420.

Date/timePositionNaut miles runAvg speedWind from/ knotsBaromVisibWave heightAir tempDewpointWater temp
2014-Oct-31 23:33N 47°54' W 122°30'1 8.8
2014-Oct-31 23:30N 47°55' W 122°31'4 4.0
2014-Oct-31 22:32N 47°53' W 122°36'111.0
2014-Oct-31 22:24N 47°52' W 122°37'6 7.6
2014-Oct-31 21:33N 47°47' W 122°43'1 9.1
2014-Oct-31 21:30N 47°46' W 122°43'4 4.7
2014-Oct-31 20:33N 47°50' W 122°40'0 5.9
2014-Oct-31 20:29N 47°50' W 122°39'5 5.8
2014-Oct-31 19:33N 47°55' W 122°37'4 4.3
2014-Oct-31 18:34N 47°55' W 122°31'0 9.4
2014-Oct-31 18:33N 47°55' W 122°31'2 6.8
2014-Oct-31 18:19N 47°54' W 122°30'5 6.6
2014-Oct-31 17:33N 47°49' W 122°27'4 6.7
2014-Oct-31 17:01N 47°46' W 122°25'3 7.1
2014-Oct-31 16:33N 47°42' W 122°26'0 6.7
2014-Oct-31 16:31N 47°42' W 122°26'6 6.7
2014-Oct-31 15:33N 47°36' W 122°26'0 6.8
2014-Oct-31 15:31N 47°36' W 122°26'7 7.1
2014-Oct-31 14:33N 47°29' W 122°30'1 7.8
2014-Oct-31 14:25N 47°28' W 122°31'7 7.8
2014-Oct-31 13:33N 47°22' W 122°32'5 6.7
2014-Oct-31 12:51N 47°18' W 122°27'1 4.1
2014-Oct-31 12:33N 47°17' W 122°26'2 1.6
2014-Oct-31 11:33N 47°17' W 122°24'3 3.3
2014-Oct-31 10:33N 47°20' W 122°25'9 8.7
2014-Oct-31 09:33N 47°28' W 122°25'5 9.5
2014-Oct-31 09:01N 47°34' W 122°25'3 6.3
2014-Oct-31 08:33N 47°35' W 122°22'1 8.0
2014-Oct-31 08:26N 47°34' W 122°21'2 1.9
2014-Oct-31 07:33N 47°36' W 122°22'0 1.4
2014-Oct-31 07:30N 47°36' W 122°22'2 2.5
2014-Oct-31 06:33N 47°37' W 122°24'0 5.3
2014-Oct-31 06:30N 47°37' W 122°25'1 5.5
2014-Oct-31 06:20N 47°38' W 122°26'4 5.0
2014-Oct-31 05:33N 47°42' W 122°28'6 5.5
2014-Oct-31 04:33N 47°47' W 122°27'0 5.6
2014-Oct-31 04:30N 47°47' W 122°27'6 6.1
2014-Oct-31 03:33N 47°53' W 122°29'0 5.1
2014-Oct-31 03:29N 47°53' W 122°29'5 5.5
2014-Oct-31 02:33N 47°57' W 122°35'5 5.5
2014-Oct-31 01:33N 48°02' W 122°39'6 5.2
2014-Oct-31 00:27N 48°07' W 122°41'5 4.5
2014-Oct-30 23:17N 48°11' W 122°47'15 5.1
2014-Oct-30 20:27N 48°25' W 122°44'5 5.6
2014-Oct-30 19:33N 48°30' W 122°44'5 4.8
2014-Oct-30 18:33N 48°35' W 122°45'4 3.7
2014-Oct-30 17:33N 48°39' W 122°44'4 3.5
2014-Oct-30 16:33N 48°42' W 122°45'4 3.9
2014-Oct-30 15:32N 48°45' W 122°48'5 4.9
2014-Oct-30 14:31N 48°48' W 122°54'5 5.3
2014-Oct-30 13:33N 48°51' W 123°01'5 5.0
2014-Oct-30 12:33N 48°53' W 123°07'6 5.7
2014-Oct-30 11:33N 48°57' W 123°14'6 6.1
2014-Oct-30 10:33N 49°01' W 123°21'5 5.4
2014-Oct-30 09:33N 49°05' W 123°26'5 5.4
2014-Oct-30 08:33N 49°09' W 123°32'6 6.0
2014-Oct-30 07:33N 49°13' W 123°39'7 6.6
2014-Oct-30 06:32N 49°17' W 123°47'7 5.9
2014-Oct-30 05:18N 49°22' W 123°56'6 5.3
2014-Oct-30 04:06N 49°26' W 124°03'5 5.5
2014-Oct-30 03:13N 49°29' W 124°09'4 4.9
2014-Oct-30 02:21N 49°31' W 124°14'4 5.1
2014-Oct-30 01:32N 49°33' W 124°20'5 5.2
2014-Oct-30 00:30N 49°36' W 124°27'5 0.5
2014-Oct-29 14:30N 49°40' W 124°32'5 4.9
2014-Oct-29 13:32N 49°36' W 124°27'5 4.8
2014-Oct-29 12:33N 49°34' W 124°21'6 5.9
2014-Oct-29 11:29N 49°31' W 124°13'8 8.3
2014-Oct-29 10:32N 49°26' W 124°03'8 7.8
2014-Oct-29 09:29N 49°21' W 123°53'7 8.0
2014-Oct-29 08:33N 49°17' W 123°44'8 7.7
2014-Oct-29 07:33N 49°12' W 123°35'8 7.5
2014-Oct-29 06:33N 49°07' W 123°26'8 7.6
2014-Oct-29 05:33N 49°02' W 123°17'7 7.1
2014-Oct-29 04:33N 48°57' W 123°09'7 6.7
2014-Oct-29 03:33N 48°53' W 123°02'15 7.2
2014-Oct-29 01:29N 48°44' W 122°44'6 6.4
2014-Oct-29 00:33N 48°38' W 122°45'7 7.2
2014-Oct-28 23:33N 48°30' W 122°44'9 7.5
2014-Oct-28 22:22N 48°22' W 122°45'9 7.6
2014-Oct-28 21:08N 48°12' W 122°47'5 9.4
2014-Oct-28 20:33N 48°09' W 122°41'10 9.7
2014-Oct-28 19:33N 47°60' W 122°36'8 8.5
2014-Oct-28 18:33N 47°53' W 122°28'8 7.7
2014-Oct-28 17:33N 47°45' W 122°26'5 7.7
2014-Oct-28 16:54N 47°41' W 122°27'3 7.3
2014-Oct-28 16:33N 47°38' W 122°26'0 6.6
2014-Oct-28 16:30N 47°38' W 122°26'4 3.8
2014-Oct-28 15:33N 47°35' W 122°22'0 3.8
2014-Oct-28 15:30N 47°35' W 122°22'1 1.0
2014-Oct-28 14:33N 47°34' W 122°21'0 0.1
2014-Oct-28 14:29N 47°34' W 122°21'0 0.0
2014-Oct-28 13:33N 47°34' W 122°21'0 0.0
2014-Oct-28 13:29N 47°34' W 122°21'0 0.0
2014-Oct-28 12:33N 47°34' W 122°21'0 0.0
2014-Oct-28 12:29N 47°34' W 122°21'0 0.0
2014-Oct-28 11:33N 47°34' W 122°21'0 0.0
2014-Oct-28 11:29N 47°34' W 122°21'0 0.0
2014-Oct-28 10:33N 47°34' W 122°21'0 0.0
2014-Oct-28 10:29N 47°34' W 122°21'0 0.0
2014-Oct-28 09:33N 47°34' W 122°21'0 0.0
2014-Oct-28 09:29N 47°34' W 122°21'0 0.0
2014-Oct-28 08:33N 47°34' W 122°21'0 0.1
2014-Oct-28 08:29N 47°34' W 122°21'0 0.0
2014-Oct-28 07:33N 47°34' W 122°21'0 0.5
2014-Oct-28 07:29N 47°34' W 122°21'0 0.0
2014-Oct-28 06:33N 47°34' W 122°21'0 0.1
2014-Oct-28 06:28N 47°34' W 122°21'0 0.5
2014-Oct-28 06:23N 47°34' W 122°21'0 0.0
2014-Oct-28 05:33N 47°34' W 122°21'0 0.0
2014-Oct-28 04:33N 47°34' W 122°21'0 0.0
2014-Oct-28 04:28N 47°34' W 122°21'0 0.0
2014-Oct-28 03:33N 47°34' W 122°21'0 0.0
2014-Oct-28 03:33N 47°34' W 122°21'0 0.0
2014-Oct-28 02:33N 47°34' W 122°21'0 0.0
2014-Oct-28 02:33N 47°34' W 122°21'0 0.0
2014-Oct-28 01:33N 47°34' W 122°21'0 0.0
2014-Oct-28 01:33N 47°34' W 122°21'0 0.0
2014-Oct-28 00:33N 47°34' W 122°21'0 0.0
2014-Oct-28 00:33N 47°34' W 122°21'0 0.5
2014-Oct-27 23:33N 47°34' W 122°21'0 0.0
2014-Oct-27 23:33N 47°34' W 122°21'1 0.8
2014-Oct-27 22:36N 47°33' W 122°21'0 5.3
2014-Oct-27 22:33N 47°34' W 122°21'1 0.8
2014-Oct-27 21:33N 47°34' W 122°21'0 4.9
2014-Oct-27 21:31N 47°34' W 122°21'0 0.1
2014-Oct-27 20:33N 47°34' W 122°21'0 0.0
2014-Oct-27 20:31N 47°34' W 122°21'0 0.4
2014-Oct-27 19:33N 47°34' W 122°21'0 2.4
2014-Oct-27 19:31N 47°34' W 122°21'0 0.5
2014-Oct-27 18:33N 47°34' W 122°21'0 0.1
2014-Oct-27 18:30N 47°34' W 122°21'1 0.6
2014-Oct-27 17:33N 47°34' W 122°21'0 4.3
2014-Oct-27 17:30N 47°34' W 122°21'3 3.1
2014-Oct-27 16:33N 47°36' W 122°24'0 3.8
2014-Oct-27 16:31N 47°37' W 122°24'5 5.3
2014-Oct-27 15:33N 47°41' W 122°28'0 5.1
2014-Oct-27 15:30N 47°41' W 122°28'5 5.8
2014-Oct-27 14:33N 47°46' W 122°27'0 5.9
2014-Oct-27 14:30N 47°47' W 122°27'6 6.4
2014-Oct-27 13:33N 47°52' W 122°29'1 6.4
2014-Oct-27 13:25N 47°53' W 122°30'7 7.9
2014-Oct-27 12:32N 47°59' W 122°37'1 8.0
2014-Oct-27 12:25N 47°59' W 122°37'9 7.5
2014-Oct-27 11:17N 48°07' W 122°42'7 9.0
2014-Oct-27 10:33N 48°11' W 122°50'6 5.7
2014-Oct-27 09:32N 48°16' W 122°55'6 5.5
2014-Oct-27 08:32N 48°20' W 122°60'6 6.0
2014-Oct-27 07:33N 48°25' W 123°05'8 7.8
2014-Oct-27 06:33N 48°31' W 123°11'9 8.6
2014-Oct-27 05:33N 48°40' W 123°15'7 6.5
2014-Oct-27 04:33N 48°45' W 123°09'3 3.3
2014-Oct-27 03:33N 48°46' W 123°13'0 0.1
2014-Oct-27 02:33N 48°46' W 123°13'0 0.1
2014-Oct-27 01:33N 48°46' W 123°13'0 0.1
2014-Oct-27 00:33N 48°46' W 123°13'0 0.2
2014-Oct-26 23:33N 48°46' W 123°13'0 0.2
2014-Oct-26 22:33N 48°46' W 123°13'0 0.1
2014-Oct-26 21:33N 48°46' W 123°13'0 0.0
2014-Oct-26 20:29N 48°46' W 123°13'0 0.0
2014-Oct-26 19:29N 48°46' W 123°13'0 0.0
2014-Oct-26 18:33N 48°46' W 123°13'0 0.1
2014-Oct-26 17:29N 48°46' W 123°13'0 0.0
2014-Oct-26 16:33N 48°46' W 123°13'0 0.0
2014-Oct-26 15:33N 48°46' W 123°13'0 0.0
2014-Oct-26 14:33N 48°46' W 123°13'0 0.0
2014-Oct-26 13:31N 48°46' W 123°13'0 0.0
2014-Oct-26 12:33N 48°46' W 123°13'0 0.0
2014-Oct-26 11:33N 48°46' W 123°13'0 0.0
2014-Oct-26 10:33N 48°46' W 123°13'0 0.0
2014-Oct-26 09:32N 48°46' W 123°13'0 0.0
2014-Oct-26 08:32N 48°46' W 123°13'0 0.0
2014-Oct-26 07:33N 48°46' W 123°13'0 0.0
2014-Oct-26 06:33N 48°46' W 123°13'0 0.1
2014-Oct-26 05:33N 48°46' W 123°13'0 0.1
2014-Oct-26 04:33N 48°46' W 123°13'0 0.0
2014-Oct-26 03:32N 48°46' W 123°13'0 0.0
2014-Oct-26 02:33N 48°46' W 123°13'0 0.0
2014-Oct-26 01:33N 48°46' W 123°13'0 0.0
2014-Oct-26 00:33N 48°46' W 123°13'0 0.0
2014-Oct-25 23:33N 48°46' W 123°13'0 0.1
2014-Oct-25 22:33N 48°46' W 123°13'0 0.3
2014-Oct-25 21:33N 48°46' W 123°13'0 0.2
2014-Oct-25 20:32N 48°46' W 123°13'0 0.0
2014-Oct-25 19:33N 48°46' W 123°13'0 0.0
2014-Oct-25 18:33N 48°46' W 123°13'0 0.0
2014-Oct-25 17:33N 48°46' W 123°13'0 0.0
2014-Oct-25 16:33N 48°46' W 123°13'0 0.4
2014-Oct-25 15:33N 48°46' W 123°13'0 0.2
2014-Oct-25 14:33N 48°47' W 123°13'0 0.2
2014-Oct-25 13:33N 48°46' W 123°13'0 0.3
2014-Oct-25 12:33N 48°46' W 123°13'4 3.7
2014-Oct-25 11:33N 48°44' W 123°08'2 1.7
2014-Oct-25 10:33N 48°44' W 123°06'3 3.0
2014-Oct-25 09:33N 48°42' W 123°10'4 4.0
2014-Oct-25 08:33N 48°41' W 123°15'5 4.8
2014-Oct-25 07:33N 48°36' W 123°14'4 3.9
2014-Oct-25 06:33N 48°32' W 123°12'3 3.1
2014-Oct-25 05:33N 48°30' W 123°09'4 4.3
2014-Oct-25 04:33N 48°26' W 123°05'6 5.9
2014-Oct-25 03:33N 48°22' W 122°59'6 5.8
2014-Oct-25 02:32N 48°17' W 122°55'7 6.1
2014-Oct-25 01:26N 48°12' W 122°48'5 5.8
2014-Oct-25 00:36N 48°09' W 122°42'1 5.4
2014-Oct-25 00:30N 48°09' W 122°42'6 5.4
2014-Oct-24 23:29N 48°04' W 122°38'5 5.2
2014-Oct-24 22:33N 47°59' W 122°35'2 5.3
2014-Oct-24 22:11N 47°58' W 122°33'4 5.8
2014-Oct-24 21:33N 47°55' W 122°29'7 6.6
2014-Oct-24 20:33N 47°49' W 122°26'4 6.8
2014-Oct-24 20:01N 47°45' W 122°25'3 7.1
2014-Oct-24 19:33N 47°42' W 122°26'0 6.8
2014-Oct-24 19:31N 47°42' W 122°26'6 6.4
2014-Oct-24 18:33N 47°36' W 122°23'1 3.5
2014-Oct-24 18:14N 47°35' W 122°22'1 1.5
2014-Oct-24 17:33N 47°34' W 122°21'0 0.6
2014-Oct-24 17:29N 47°34' W 122°21'0 0.0
2014-Oct-24 16:33N 47°34' W 122°21'0 0.1
2014-Oct-24 16:28N 47°34' W 122°21'0 0.0
2014-Oct-24 15:33N 47°34' W 122°21'0 0.1
2014-Oct-24 15:29N 47°34' W 122°21'1 0.6
2014-Oct-24 14:33N 47°34' W 122°21'0 0.1
2014-Oct-24 14:28N 47°34' W 122°21'0 0.5
2014-Oct-24 13:33N 47°34' W 122°21'0 0.0
2014-Oct-24 13:33N 47°34' W 122°21'0 0.0
2014-Oct-24 12:33N 47°34' W 122°21'0 0.0
2014-Oct-24 12:33N 47°34' W 122°21'0 0.0
2014-Oct-24 11:33N 47°34' W 122°21'0 0.0
2014-Oct-24 11:33N 47°34' W 122°21'0 0.0
2014-Oct-24 10:33N 47°34' W 122°21'0 0.0
2014-Oct-24 10:33N 47°34' W 122°21'1 0.7
2014-Oct-24 09:33N 47°34' W 122°21'0 0.0
2014-Oct-24 09:33N 47°34' W 122°21'1 1.4
2014-Oct-24 08:33N 47°32' W 122°20'3 2.8
2014-Oct-24 07:33N 47°35' W 122°22'2 2.2
2014-Oct-24 06:27N 47°35' W 122°25'1 7.6
2014-Oct-24 06:22N 47°35' W 122°26'3 8.1
2014-Oct-24 06:02N 47°32' W 122°27'5 9.4
2014-Oct-24 05:33N 47°28' W 122°31'9 8.5
2014-Oct-24 04:33N 47°20' W 122°32'5 4.6
2014-Oct-24 03:33N 47°18' W 122°26'0 0.0
2014-Oct-24 02:33N 47°18' W 122°26'0 0.0
2014-Oct-24 01:33N 47°18' W 122°26'2 1.7
2014-Oct-24 00:30N 47°16' W 122°24'4 4.0
2014-Oct-23 23:36N 47°18' W 122°28'0 8.5
2014-Oct-23 23:33N 47°18' W 122°29'3 3.3
2014-Oct-23 22:33N 47°16' W 122°33'7 6.1
2014-Oct-23 21:21N 47°10' W 122°38'1 1.3
2014-Oct-23 20:23N 47°09' W 122°38'0 0.0
2014-Oct-23 19:33N 47°09' W 122°38'1 1.0
2014-Oct-23 18:33N 47°10' W 122°39'8 7.8
2014-Oct-23 17:33N 47°16' W 122°33'3 4.4
2014-Oct-23 16:50N 47°19' W 122°30'310.0
2014-Oct-23 16:33N 47°17' W 122°26'2 1.7
2014-Oct-23 15:28N 47°17' W 122°24'0 0.0
2014-Oct-23 14:31N 47°17' W 122°24'1 0.7
2014-Oct-23 13:20N 47°16' W 122°23'1 1.0
2014-Oct-23 12:33N 47°17' W 122°24'1 0.6
2014-Oct-23 11:32N 47°16' W 122°23'2 2.2
2014-Oct-23 10:33N 47°17' W 122°26'3 3.3
2014-Oct-23 09:33N 47°20' W 122°24'2 5.2
2014-Oct-23 09:14N 47°21' W 122°22'3 4.9
2014-Oct-23 08:33N 47°25' W 122°23'3 4.7
2014-Oct-23 07:49N 47°28' W 122°25'1 4.8
2014-Oct-23 07:33N 47°29' W 122°26'2 4.7
2014-Oct-23 07:05N 47°31' W 122°26'3 4.9
2014-Oct-23 06:33N 47°34' W 122°27'0 4.7
2014-Oct-23 06:29N 47°34' W 122°27'2 4.2
2014-Oct-23 05:55N 47°37' W 122°28'1 4.0
2014-Oct-23 05:33N 47°38' W 122°28'3 3.5
2014-Oct-23 04:33N 47°41' W 122°28'0 3.5
2014-Oct-23 04:29N 47°42' W 122°28'3 3.4
2014-Oct-23 03:33N 47°45' W 122°27'0 3.1
2014-Oct-23 03:29N 47°45' W 122°27'3 3.6
2014-Oct-23 02:33N 47°48' W 122°28'0 3.9
2014-Oct-23 02:29N 47°49' W 122°28'4 3.9
2014-Oct-23 01:33N 47°52' W 122°29'0 3.8
2014-Oct-23 01:29N 47°52' W 122°30'4 3.8
2014-Oct-23 00:33N 47°55' W 122°32'4 4.1
2014-Oct-22 23:33N 47°56' W 122°38'5 4.7
2014-Oct-22 22:33N 47°52' W 122°37'4 4.1
2014-Oct-22 21:33N 47°48' W 122°41'3 2.8
2014-Oct-22 20:33N 47°46' W 122°43'0 0.2
2014-Oct-22 19:33N 47°46' W 122°43'0 0.0
2014-Oct-22 18:33N 47°46' W 122°43'0 4.9
2014-Oct-22 18:33N 47°46' W 122°43'7 7.4
2014-Oct-22 17:33N 47°52' W 122°37'5 4.7
2014-Oct-22 16:31N 47°57' W 122°37'3 8.0
2014-Oct-22 16:12N 47°57' W 122°33'5 8.0
2014-Oct-22 15:33N 47°53' W 122°28'7 8.6
2014-Oct-22 14:48N 47°47' W 122°26'2 8.7
2014-Oct-22 14:33N 47°45' W 122°26'0 8.6
2014-Oct-22 14:33N 47°45' W 122°26'8 7.9
2014-Oct-22 13:33N 47°37' W 122°24'0 6.9
2014-Oct-22 13:32N 47°37' W 122°23'3 3.0
2014-Oct-22 12:33N 47°34' W 122°21'0 0.0
2014-Oct-22 12:32N 47°34' W 122°21'0 0.0
2014-Oct-22 11:33N 47°34' W 122°21'0 0.0
2014-Oct-22 11:32N 47°34' W 122°21'0 0.0
2014-Oct-22 10:33N 47°34' W 122°21'0 0.0
2014-Oct-22 10:32N 47°34' W 122°21'0 0.0
2014-Oct-22 09:33N 47°34' W 122°21'0 0.0
2014-Oct-22 09:32N 47°34' W 122°21'0 0.0
2014-Oct-22 08:33N 47°34' W 122°21'0 0.0
2014-Oct-22 08:32N 47°34' W 122°21'0 0.0
2014-Oct-22 07:33N 47°34' W 122°21'0 0.3
2014-Oct-22 07:32N 47°34' W 122°21'0 0.0
2014-Oct-22 06:33N 47°34' W 122°21'0 0.0
2014-Oct-22 06:31N 47°34' W 122°21'0 0.0
2014-Oct-22 05:57N 47°34' W 122°21'0 0.0
2014-Oct-22 05:33N 47°34' W 122°21'0 0.0
2014-Oct-22 04:32N 47°34' W 122°21'0 0.0
2014-Oct-22 04:31N 47°34' W 122°21'0 0.0
2014-Oct-22 03:33N 47°34' W 122°21'0 0.0
2014-Oct-22 03:31N 47°34' W 122°21'0 0.0
2014-Oct-22 02:26N 47°34' W 122°21'0 0.0
2014-Oct-22 01:29N 47°34' W 122°21'0 0.0
2014-Oct-22 01:29N 47°34' W 122°21'0 0.0
2014-Oct-22 00:19N 47°34' W 122°21'1 2.3
2014-Oct-21 23:52N 47°35' W 122°22'1 4.5
2014-Oct-21 23:33N 47°34' W 122°21'  

Dump ship's entire track history